sensor_id;sensor_type;location;lat;lon;timestamp;P1;durP1;ratioP1;P2;durP2;ratioP2
46006;SDS011;31738;50.188;8.524;2024-03-07T00:00:46;57.05;;;23.35;;
46006;SDS011;31738;50.188;8.524;2024-03-07T00:03:13;55.47;;;24.88;;
46006;SDS011;31738;50.188;8.524;2024-03-07T00:05:38;60.70;;;25.70;;
46006;SDS011;31738;50.188;8.524;2024-03-07T00:08:13;56.05;;;24.77;;
46006;SDS011;31738;50.188;8.524;2024-03-07T00:10:46;61.75;;;25.38;;
46006;SDS011;31738;50.188;8.524;2024-03-07T00:13:15;64.88;;;27.35;;
46006;SDS011;31738;50.188;8.524;2024-03-07T00:15:41;66.65;;;27.15;;
46006;SDS011;31738;50.188;8.524;2024-03-07T00:18:06;63.70;;;27.40;;
46006;SDS011;31738;50.188;8.524;2024-03-07T00:20:32;64.13;;;27.08;;
46006;SDS011;31738;50.188;8.524;2024-03-07T00:22:58;69.68;;;28.42;;
46006;SDS011;31738;50.188;8.524;2024-03-07T00:25:23;69.40;;;28.75;;
46006;SDS011;31738;50.188;8.524;2024-03-07T00:27:49;68.90;;;28.48;;
46006;SDS011;31738;50.188;8.524;2024-03-07T00:30:25;69.90;;;28.50;;
46006;SDS011;31738;50.188;8.524;2024-03-07T00:33:00;67.38;;;27.00;;
46006;SDS011;31738;50.188;8.524;2024-03-07T00:35:25;68.38;;;28.10;;
46006;SDS011;31738;50.188;8.524;2024-03-07T00:37:51;66.47;;;27.50;;
46006;SDS011;31738;50.188;8.524;2024-03-07T00:40:17;61.53;;;27.42;;
46006;SDS011;31738;50.188;8.524;2024-03-07T00:42:42;64.68;;;26.42;;
46006;SDS011;31738;50.188;8.524;2024-03-07T00:45:18;71.45;;;28.15;;
46006;SDS011;31738;50.188;8.524;2024-03-07T00:47:53;66.18;;;27.88;;
46006;SDS011;31738;50.188;8.524;2024-03-07T00:50:18;60.60;;;26.67;;
46006;SDS011;31738;50.188;8.524;2024-03-07T00:52:44;65.50;;;26.80;;
46006;SDS011;31738;50.188;8.524;2024-03-07T00:55:17;60.03;;;26.55;;
46006;SDS011;31738;50.188;8.524;2024-03-07T00:57:43;66.13;;;26.27;;
46006;SDS011;31738;50.188;8.524;2024-03-07T01:00:09;57.20;;;25.23;;
46006;SDS011;31738;50.188;8.524;2024-03-07T01:02:40;58.22;;;25.23;;
46006;SDS011;31738;50.188;8.524;2024-03-07T01:05:20;56.60;;;25.02;;
46006;SDS011;31738;50.188;8.524;2024-03-07T01:07:48;54.83;;;24.42;;
46006;SDS011;31738;50.188;8.524;2024-03-07T01:10:14;57.97;;;25.33;;
46006;SDS011;31738;50.188;8.524;2024-03-07T01:12:41;56.22;;;25.42;;
46006;SDS011;31738;50.188;8.524;2024-03-07T01:15:11;56.22;;;24.77;;
46006;SDS011;31738;50.188;8.524;2024-03-07T01:18:13;57.95;;;24.23;;
46006;SDS011;31738;50.188;8.524;2024-03-07T01:20:38;54.45;;;23.52;;
46006;SDS011;31738;50.188;8.524;2024-03-07T01:23:04;57.80;;;23.58;;
46006;SDS011;31738;50.188;8.524;2024-03-07T01:25:36;51.25;;;22.17;;
46006;SDS011;31738;50.188;8.524;2024-03-07T01:28:02;51.33;;;22.10;;
46006;SDS011;31738;50.188;8.524;2024-03-07T01:30:40;49.60;;;22.40;;
46006;SDS011;31738;50.188;8.524;2024-03-07T01:33:08;54.28;;;22.23;;
46006;SDS011;31738;50.188;8.524;2024-03-07T01:35:59;57.08;;;22.88;;
46006;SDS011;31738;50.188;8.524;2024-03-07T01:38:32;56.05;;;22.33;;
46006;SDS011;31738;50.188;8.524;2024-03-07T01:40:58;53.95;;;22.38;;
46006;SDS011;31738;50.188;8.524;2024-03-07T01:43:26;50.17;;;22.23;;
46006;SDS011;31738;50.188;8.524;2024-03-07T01:45:53;53.42;;;21.92;;
46006;SDS011;31738;50.188;8.524;2024-03-07T01:48:25;47.67;;;20.77;;
46006;SDS011;31738;50.188;8.524;2024-03-07T01:50:54;47.67;;;20.30;;
46006;SDS011;31738;50.188;8.524;2024-03-07T01:53:32;50.08;;;21.13;;
46006;SDS011;31738;50.188;8.524;2024-03-07T01:56:10;47.20;;;20.88;;
46006;SDS011;31738;50.188;8.524;2024-03-07T01:58:54;54.90;;;22.27;;
46006;SDS011;31738;50.188;8.524;2024-03-07T02:01:23;53.72;;;21.90;;
46006;SDS011;31738;50.188;8.524;2024-03-07T02:03:49;46.90;;;20.42;;
46006;SDS011;31738;50.188;8.524;2024-03-07T02:06:41;45.88;;;20.00;;
46006;SDS011;31738;50.188;8.524;2024-03-07T02:09:38;45.95;;;19.85;;
46006;SDS011;31738;50.188;8.524;2024-03-07T02:12:03;45.05;;;19.70;;
46006;SDS011;31738;50.188;8.524;2024-03-07T02:14:29;44.33;;;19.73;;
46006;SDS011;31738;50.188;8.524;2024-03-07T02:17:04;52.42;;;20.52;;
46006;SDS011;31738;50.188;8.524;2024-03-07T02:19:35;42.30;;;18.00;;
46006;SDS011;31738;50.188;8.524;2024-03-07T02:22:28;44.42;;;18.88;;
46006;SDS011;31738;50.188;8.524;2024-03-07T02:25:18;49.65;;;19.98;;
46006;SDS011;31738;50.188;8.524;2024-03-07T02:28:22;43.75;;;20.00;;
46006;SDS011;31738;50.188;8.524;2024-03-07T02:30:48;46.65;;;18.75;;
46006;SDS011;31738;50.188;8.524;2024-03-07T02:33:18;47.85;;;18.85;;
46006;SDS011;31738;50.188;8.524;2024-03-07T02:35:44;44.42;;;19.10;;
46006;SDS011;31738;50.188;8.524;2024-03-07T02:38:09;42.88;;;19.08;;
46006;SDS011;31738;50.188;8.524;2024-03-07T02:43:36;43.58;;;19.05;;
46006;SDS011;31738;50.188;8.524;2024-03-07T02:49:11;40.30;;;17.45;;
46006;SDS011;31738;50.188;8.524;2024-03-07T02:51:52;42.17;;;18.33;;
46006;SDS011;31738;50.188;8.524;2024-03-07T02:54:33;39.88;;;17.38;;
46006;SDS011;31738;50.188;8.524;2024-03-07T02:56:59;44.35;;;17.67;;
46006;SDS011;31738;50.188;8.524;2024-03-07T02:59:25;43.45;;;16.73;;
46006;SDS011;31738;50.188;8.524;2024-03-07T03:01:51;39.63;;;16.75;;
46006;SDS011;31738;50.188;8.524;2024-03-07T03:04:16;39.70;;;17.13;;
46006;SDS011;31738;50.188;8.524;2024-03-07T03:06:57;40.08;;;16.48;;
46006;SDS011;31738;50.188;8.524;2024-03-07T03:09:35;40.22;;;16.65;;
46006;SDS011;31738;50.188;8.524;2024-03-07T03:12:05;40.60;;;16.45;;
46006;SDS011;31738;50.188;8.524;2024-03-07T03:14:31;40.80;;;16.70;;
46006;SDS011;31738;50.188;8.524;2024-03-07T03:17:06;36.15;;;15.45;;
46006;SDS011;31738;50.188;8.524;2024-03-07T03:19:42;36.40;;;16.15;;
46006;SDS011;31738;50.188;8.524;2024-03-07T03:22:12;36.63;;;15.48;;
46006;SDS011;31738;50.188;8.524;2024-03-07T03:25:14;40.35;;;16.83;;
46006;SDS011;31738;50.188;8.524;2024-03-07T03:27:51;39.72;;;17.17;;
46006;SDS011;31738;50.188;8.524;2024-03-07T03:30:51;35.53;;;15.48;;
46006;SDS011;31738;50.188;8.524;2024-03-07T03:33:25;35.83;;;15.65;;
46006;SDS011;31738;50.188;8.524;2024-03-07T03:35:57;35.63;;;15.85;;
46006;SDS011;31738;50.188;8.524;2024-03-07T03:38:55;32.13;;;14.90;;
46006;SDS011;31738;50.188;8.524;2024-03-07T03:41:32;35.00;;;14.48;;
46006;SDS011;31738;50.188;8.524;2024-03-07T03:43:57;37.25;;;15.80;;
46006;SDS011;31738;50.188;8.524;2024-03-07T03:46:23;36.10;;;15.98;;
46006;SDS011;31738;50.188;8.524;2024-03-07T03:48:49;37.20;;;15.80;;
46006;SDS011;31738;50.188;8.524;2024-03-07T03:51:16;36.47;;;15.50;;
46006;SDS011;31738;50.188;8.524;2024-03-07T03:53:41;38.75;;;14.50;;
46006;SDS011;31738;50.188;8.524;2024-03-07T03:56:09;35.65;;;15.73;;
46006;SDS011;31738;50.188;8.524;2024-03-07T03:58:37;39.25;;;16.58;;
46006;SDS011;31738;50.188;8.524;2024-03-07T04:01:02;38.80;;;16.35;;
46006;SDS011;31738;50.188;8.524;2024-03-07T04:03:28;37.75;;;15.73;;
46006;SDS011;31738;50.188;8.524;2024-03-07T04:05:53;34.75;;;15.90;;
46006;SDS011;31738;50.188;8.524;2024-03-07T04:08:20;36.42;;;15.82;;
46006;SDS011;31738;50.188;8.524;2024-03-07T04:10:45;35.47;;;16.42;;
46006;SDS011;31738;50.188;8.524;2024-03-07T04:13:11;34.20;;;15.38;;
46006;SDS011;31738;50.188;8.524;2024-03-07T04:15:36;31.20;;;14.20;;
46006;SDS011;31738;50.188;8.524;2024-03-07T04:18:02;33.33;;;15.55;;
46006;SDS011;31738;50.188;8.524;2024-03-07T04:20:27;30.88;;;15.07;;
46006;SDS011;31738;50.188;8.524;2024-03-07T04:22:53;32.50;;;14.85;;
46006;SDS011;31738;50.188;8.524;2024-03-07T04:25:20;33.83;;;14.98;;
46006;SDS011;31738;50.188;8.524;2024-03-07T04:27:46;36.17;;;14.57;;
46006;SDS011;31738;50.188;8.524;2024-03-07T04:30:11;30.83;;;14.65;;
46006;SDS011;31738;50.188;8.524;2024-03-07T04:32:40;33.03;;;14.70;;
46006;SDS011;31738;50.188;8.524;2024-03-07T04:35:07;31.42;;;14.02;;
46006;SDS011;31738;50.188;8.524;2024-03-07T04:37:33;31.52;;;14.38;;
46006;SDS011;31738;50.188;8.524;2024-03-07T04:40:05;30.23;;;13.82;;
46006;SDS011;31738;50.188;8.524;2024-03-07T04:42:47;27.88;;;12.85;;
46006;SDS011;31738;50.188;8.524;2024-03-07T04:45:14;28.65;;;12.85;;
46006;SDS011;31738;50.188;8.524;2024-03-07T04:47:40;28.90;;;13.23;;
46006;SDS011;31738;50.188;8.524;2024-03-07T04:50:13;31.92;;;14.20;;
46006;SDS011;31738;50.188;8.524;2024-03-07T04:52:42;29.33;;;13.45;;
46006;SDS011;31738;50.188;8.524;2024-03-07T04:55:08;31.48;;;14.02;;
46006;SDS011;31738;50.188;8.524;2024-03-07T04:57:36;31.88;;;13.88;;
46006;SDS011;31738;50.188;8.524;2024-03-07T05:00:06;30.75;;;13.52;;
46006;SDS011;31738;50.188;8.524;2024-03-07T05:02:37;34.05;;;14.38;;
46006;SDS011;31738;50.188;8.524;2024-03-07T05:05:02;32.95;;;14.13;;
46006;SDS011;31738;50.188;8.524;2024-03-07T05:07:28;34.00;;;14.85;;
46006;SDS011;31738;50.188;8.524;2024-03-07T05:09:53;34.42;;;14.50;;
46006;SDS011;31738;50.188;8.524;2024-03-07T05:12:19;37.08;;;15.82;;
46006;SDS011;31738;50.188;8.524;2024-03-07T05:14:44;35.15;;;15.18;;
46006;SDS011;31738;50.188;8.524;2024-03-07T05:17:10;31.00;;;14.90;;
46006;SDS011;31738;50.188;8.524;2024-03-07T05:19:35;36.53;;;16.08;;
46006;SDS011;31738;50.188;8.524;2024-03-07T05:22:01;37.25;;;15.60;;
46006;SDS011;31738;50.188;8.524;2024-03-07T05:24:30;35.95;;;15.88;;
46006;SDS011;31738;50.188;8.524;2024-03-07T05:26:58;34.45;;;15.95;;
46006;SDS011;31738;50.188;8.524;2024-03-07T05:29:23;34.42;;;15.38;;
46006;SDS011;31738;50.188;8.524;2024-03-07T05:31:49;38.63;;;16.48;;
46006;SDS011;31738;50.188;8.524;2024-03-07T05:34:15;40.13;;;17.33;;
46006;SDS011;31738;50.188;8.524;2024-03-07T05:36:44;42.10;;;17.63;;
46006;SDS011;31738;50.188;8.524;2024-03-07T05:39:15;36.97;;;17.13;;
46006;SDS011;31738;50.188;8.524;2024-03-07T05:41:43;38.00;;;16.45;;
46006;SDS011;31738;50.188;8.524;2024-03-07T05:44:13;33.42;;;15.63;;
46006;SDS011;31738;50.188;8.524;2024-03-07T05:46:39;37.83;;;17.85;;
46006;SDS011;31738;50.188;8.524;2024-03-07T05:49:07;45.33;;;18.50;;
46006;SDS011;31738;50.188;8.524;2024-03-07T05:51:33;37.28;;;17.25;;
46006;SDS011;31738;50.188;8.524;2024-03-07T05:53:58;39.75;;;17.83;;
46006;SDS011;31738;50.188;8.524;2024-03-07T05:56:23;42.75;;;18.52;;
46006;SDS011;31738;50.188;8.524;2024-03-07T05:58:49;41.60;;;17.25;;
46006;SDS011;31738;50.188;8.524;2024-03-07T06:01:16;40.97;;;17.98;;
46006;SDS011;31738;50.188;8.524;2024-03-07T06:03:43;43.33;;;16.60;;
46006;SDS011;31738;50.188;8.524;2024-03-07T06:06:09;37.70;;;16.77;;
46006;SDS011;31738;50.188;8.524;2024-03-07T06:08:36;42.40;;;17.80;;
46006;SDS011;31738;50.188;8.524;2024-03-07T06:11:07;39.22;;;16.98;;
46006;SDS011;31738;50.188;8.524;2024-03-07T06:13:33;39.15;;;16.60;;
46006;SDS011;31738;50.188;8.524;2024-03-07T06:15:58;39.20;;;16.77;;
46006;SDS011;31738;50.188;8.524;2024-03-07T06:18:24;38.05;;;16.52;;
46006;SDS011;31738;50.188;8.524;2024-03-07T06:20:49;40.17;;;16.90;;
46006;SDS011;31738;50.188;8.524;2024-03-07T06:23:14;35.58;;;16.08;;
46006;SDS011;31738;50.188;8.524;2024-03-07T06:25:42;41.88;;;17.10;;
46006;SDS011;31738;50.188;8.524;2024-03-07T06:28:17;39.70;;;16.45;;
46006;SDS011;31738;50.188;8.524;2024-03-07T06:30:43;43.97;;;16.58;;
46006;SDS011;31738;50.188;8.524;2024-03-07T06:33:10;38.20;;;16.88;;
46006;SDS011;31738;50.188;8.524;2024-03-07T06:35:36;37.42;;;16.52;;
46006;SDS011;31738;50.188;8.524;2024-03-07T06:38:09;38.38;;;17.50;;
46006;SDS011;31738;50.188;8.524;2024-03-07T06:40:38;41.13;;;16.65;;
46006;SDS011;31738;50.188;8.524;2024-03-07T06:43:10;35.05;;;15.43;;
46006;SDS011;31738;50.188;8.524;2024-03-07T06:45:36;37.63;;;16.50;;
46006;SDS011;31738;50.188;8.524;2024-03-07T06:48:05;36.20;;;15.73;;
46006;SDS011;31738;50.188;8.524;2024-03-07T06:50:35;38.00;;;15.68;;
46006;SDS011;31738;50.188;8.524;2024-03-07T06:53:03;37.45;;;16.08;;
46006;SDS011;31738;50.188;8.524;2024-03-07T06:56:17;33.00;;;15.38;;
46006;SDS011;31738;50.188;8.524;2024-03-07T06:58:43;38.92;;;15.57;;
46006;SDS011;31738;50.188;8.524;2024-03-07T07:01:11;38.67;;;16.05;;
46006;SDS011;31738;50.188;8.524;2024-03-07T07:03:40;40.60;;;16.45;;
46006;SDS011;31738;50.188;8.524;2024-03-07T07:06:08;35.65;;;16.35;;
46006;SDS011;31738;50.188;8.524;2024-03-07T07:08:35;39.33;;;16.23;;
46006;SDS011;31738;50.188;8.524;2024-03-07T07:11:01;43.67;;;17.15;;
46006;SDS011;31738;50.188;8.524;2024-03-07T07:13:29;40.17;;;16.30;;
46006;SDS011;31738;50.188;8.524;2024-03-07T07:15:55;36.08;;;16.65;;
46006;SDS011;31738;50.188;8.524;2024-03-07T07:18:20;45.45;;;17.88;;
46006;SDS011;31738;50.188;8.524;2024-03-07T07:20:48;41.10;;;17.15;;
46006;SDS011;31738;50.188;8.524;2024-03-07T07:23:14;39.25;;;16.35;;
46006;SDS011;31738;50.188;8.524;2024-03-07T07:25:39;38.40;;;15.35;;
46006;SDS011;31738;50.188;8.524;2024-03-07T07:28:06;35.95;;;16.95;;
46006;SDS011;31738;50.188;8.524;2024-03-07T07:30:36;41.30;;;16.73;;
46006;SDS011;31738;50.188;8.524;2024-03-07T07:33:02;34.72;;;15.50;;
46006;SDS011;31738;50.188;8.524;2024-03-07T07:35:28;36.25;;;15.65;;
46006;SDS011;31738;50.188;8.524;2024-03-07T07:37:53;34.70;;;14.82;;
46006;SDS011;31738;50.188;8.524;2024-03-07T07:40:21;39.83;;;16.08;;
46006;SDS011;31738;50.188;8.524;2024-03-07T07:42:49;40.72;;;15.90;;
46006;SDS011;31738;50.188;8.524;2024-03-07T07:45:16;38.88;;;17.20;;
46006;SDS011;31738;50.188;8.524;2024-03-07T07:47:44;38.92;;;16.42;;
46006;SDS011;31738;50.188;8.524;2024-03-07T07:50:11;35.88;;;17.00;;
46006;SDS011;31738;50.188;8.524;2024-03-07T07:52:43;39.28;;;17.23;;
46006;SDS011;31738;50.188;8.524;2024-03-07T07:55:10;35.83;;;17.15;;
46006;SDS011;31738;50.188;8.524;2024-03-07T07:57:43;38.67;;;18.10;;
46006;SDS011;31738;50.188;8.524;2024-03-07T08:00:13;42.17;;;18.45;;
46006;SDS011;31738;50.188;8.524;2024-03-07T08:02:48;39.03;;;17.67;;
46006;SDS011;31738;50.188;8.524;2024-03-07T08:05:34;36.65;;;17.27;;
46006;SDS011;31738;50.188;8.524;2024-03-07T08:08:05;38.33;;;17.10;;
46006;SDS011;31738;50.188;8.524;2024-03-07T08:10:32;41.38;;;16.80;;
46006;SDS011;31738;50.188;8.524;2024-03-07T08:13:00;41.97;;;16.98;;
46006;SDS011;31738;50.188;8.524;2024-03-07T08:15:28;39.33;;;16.42;;
46006;SDS011;31738;50.188;8.524;2024-03-07T08:17:54;34.80;;;15.98;;
46006;SDS011;31738;50.188;8.524;2024-03-07T08:20:21;38.83;;;17.70;;
46006;SDS011;31738;50.188;8.524;2024-03-07T08:22:48;41.08;;;17.45;;
46006;SDS011;31738;50.188;8.524;2024-03-07T08:25:18;39.58;;;16.95;;
46006;SDS011;31738;50.188;8.524;2024-03-07T08:27:46;37.70;;;15.40;;
46006;SDS011;31738;50.188;8.524;2024-03-07T08:30:19;39.70;;;16.38;;
46006;SDS011;31738;50.188;8.524;2024-03-07T08:32:51;37.55;;;15.43;;
46006;SDS011;31738;50.188;8.524;2024-03-07T08:35:18;34.75;;;13.18;;
46006;SDS011;31738;50.188;8.524;2024-03-07T08:37:45;32.53;;;14.95;;
46006;SDS011;31738;50.188;8.524;2024-03-07T08:40:14;34.45;;;14.73;;
46006;SDS011;31738;50.188;8.524;2024-03-07T08:42:50;38.20;;;14.82;;
46006;SDS011;31738;50.188;8.524;2024-03-07T08:45:17;35.92;;;14.68;;
46006;SDS011;31738;50.188;8.524;2024-03-07T08:47:44;32.90;;;14.65;;
46006;SDS011;31738;50.188;8.524;2024-03-07T08:50:11;37.65;;;16.38;;
46006;SDS011;31738;50.188;8.524;2024-03-07T08:52:38;33.42;;;14.18;;
46006;SDS011;31738;50.188;8.524;2024-03-07T08:55:05;35.50;;;14.38;;
46006;SDS011;31738;50.188;8.524;2024-03-07T08:57:34;27.98;;;13.77;;
46006;SDS011;31738;50.188;8.524;2024-03-07T08:59:59;33.95;;;14.25;;
46006;SDS011;31738;50.188;8.524;2024-03-07T09:02:26;31.65;;;14.15;;
46006;SDS011;31738;50.188;8.524;2024-03-07T09:04:52;40.33;;;16.55;;
46006;SDS011;31738;50.188;8.524;2024-03-07T09:07:17;34.83;;;15.45;;
46006;SDS011;31738;50.188;8.524;2024-03-07T09:09:43;32.05;;;13.90;;
46006;SDS011;31738;50.188;8.524;2024-03-07T09:12:10;36.08;;;15.23;;
46006;SDS011;31738;50.188;8.524;2024-03-07T09:14:36;36.30;;;14.82;;
46006;SDS011;31738;50.188;8.524;2024-03-07T09:17:02;32.42;;;14.77;;
46006;SDS011;31738;50.188;8.524;2024-03-07T09:19:32;31.92;;;14.95;;
46006;SDS011;31738;50.188;8.524;2024-03-07T09:21:58;35.53;;;16.08;;
46006;SDS011;31738;50.188;8.524;2024-03-07T09:24:25;32.03;;;13.93;;
46006;SDS011;31738;50.188;8.524;2024-03-07T09:26:51;37.47;;;15.15;;
46006;SDS011;31738;50.188;8.524;2024-03-07T09:29:17;33.85;;;14.60;;
46006;SDS011;31738;50.188;8.524;2024-03-07T09:31:44;37.90;;;15.15;;
46006;SDS011;31738;50.188;8.524;2024-03-07T09:34:11;34.78;;;14.73;;
46006;SDS011;31738;50.188;8.524;2024-03-07T09:36:38;31.75;;;15.13;;
46006;SDS011;31738;50.188;8.524;2024-03-07T09:39:07;30.73;;;14.40;;
46006;SDS011;31738;50.188;8.524;2024-03-07T09:41:33;34.83;;;13.40;;
46006;SDS011;31738;50.188;8.524;2024-03-07T09:43:59;35.55;;;14.60;;
46006;SDS011;31738;50.188;8.524;2024-03-07T09:46:25;33.40;;;15.25;;
46006;SDS011;31738;50.188;8.524;2024-03-07T09:48:50;36.00;;;15.05;;
46006;SDS011;31738;50.188;8.524;2024-03-07T09:51:21;39.25;;;15.23;;
46006;SDS011;31738;50.188;8.524;2024-03-07T09:53:46;32.65;;;14.85;;
46006;SDS011;31738;50.188;8.524;2024-03-07T09:56:14;30.42;;;12.98;;
46006;SDS011;31738;50.188;8.524;2024-03-07T09:58:47;34.67;;;14.55;;
46006;SDS011;31738;50.188;8.524;2024-03-07T10:06:19;31.40;;;13.43;;
46006;SDS011;31738;50.188;8.524;2024-03-07T10:08:46;33.53;;;14.57;;
46006;SDS011;31738;50.188;8.524;2024-03-07T10:11:18;31.42;;;14.38;;
46006;SDS011;31738;50.188;8.524;2024-03-07T10:13:43;29.58;;;13.98;;
46006;SDS011;31738;50.188;8.524;2024-03-07T10:16:15;32.50;;;12.63;;
46006;SDS011;31738;50.188;8.524;2024-03-07T10:18:43;31.52;;;13.38;;
46006;SDS011;31738;50.188;8.524;2024-03-07T10:21:14;31.13;;;12.30;;
46006;SDS011;31738;50.188;8.524;2024-03-07T10:23:39;29.42;;;13.60;;
46006;SDS011;31738;50.188;8.524;2024-03-07T10:26:05;26.35;;;12.77;;
46006;SDS011;31738;50.188;8.524;2024-03-07T10:28:31;32.95;;;13.43;;
46006;SDS011;31738;50.188;8.524;2024-03-07T10:31:01;32.95;;;13.52;;
46006;SDS011;31738;50.188;8.524;2024-03-07T10:33:28;31.92;;;13.57;;
46006;SDS011;31738;50.188;8.524;2024-03-07T10:35:58;28.73;;;13.98;;
46006;SDS011;31738;50.188;8.524;2024-03-07T10:38:27;31.85;;;14.07;;
46006;SDS011;31738;50.188;8.524;2024-03-07T10:40:55;31.13;;;14.50;;
46006;SDS011;31738;50.188;8.524;2024-03-07T10:43:21;29.27;;;13.10;;
46006;SDS011;31738;50.188;8.524;2024-03-07T10:45:48;30.02;;;13.05;;
46006;SDS011;31738;50.188;8.524;2024-03-07T10:48:18;28.67;;;13.10;;
46006;SDS011;31738;50.188;8.524;2024-03-07T10:53:15;30.80;;;13.35;;
46006;SDS011;31738;50.188;8.524;2024-03-07T10:55:54;27.70;;;12.73;;
46006;SDS011;31738;50.188;8.524;2024-03-07T11:01:30;27.52;;;12.60;;
46006;SDS011;31738;50.188;8.524;2024-03-07T11:04:00;24.98;;;12.20;;
46006;SDS011;31738;50.188;8.524;2024-03-07T11:06:29;23.95;;;12.38;;
46006;SDS011;31738;50.188;8.524;2024-03-07T11:09:08;28.85;;;13.38;;
46006;SDS011;31738;50.188;8.524;2024-03-07T11:11:49;25.83;;;12.15;;
46006;SDS011;31738;50.188;8.524;2024-03-07T11:14:31;31.13;;;13.85;;
46006;SDS011;31738;50.188;8.524;2024-03-07T11:17:09;28.88;;;11.98;;
46006;SDS011;31738;50.188;8.524;2024-03-07T11:19:41;27.75;;;12.48;;
46006;SDS011;31738;50.188;8.524;2024-03-07T11:22:07;24.63;;;11.77;;
46006;SDS011;31738;50.188;8.524;2024-03-07T11:25:02;28.73;;;12.45;;
46006;SDS011;31738;50.188;8.524;2024-03-07T11:27:33;29.65;;;13.40;;
46006;SDS011;31738;50.188;8.524;2024-03-07T11:30:05;29.48;;;13.57;;
46006;SDS011;31738;50.188;8.524;2024-03-07T11:32:39;28.58;;;14.57;;
46006;SDS011;31738;50.188;8.524;2024-03-07T11:35:11;26.90;;;13.05;;
46006;SDS011;31738;50.188;8.524;2024-03-07T11:37:39;31.15;;;14.13;;
46006;SDS011;31738;50.188;8.524;2024-03-07T11:40:11;31.88;;;14.20;;
46006;SDS011;31738;50.188;8.524;2024-03-07T11:42:47;30.02;;;13.65;;
46006;SDS011;31738;50.188;8.524;2024-03-07T11:45:13;26.98;;;13.10;;
46006;SDS011;31738;50.188;8.524;2024-03-07T11:47:53;27.35;;;13.65;;
46006;SDS011;31738;50.188;8.524;2024-03-07T11:50:26;28.98;;;14.23;;
46006;SDS011;31738;50.188;8.524;2024-03-07T11:52:53;30.25;;;15.23;;
46006;SDS011;31738;50.188;8.524;2024-03-07T11:55:20;29.38;;;14.05;;
46006;SDS011;31738;50.188;8.524;2024-03-07T11:57:49;30.98;;;14.50;;
46006;SDS011;31738;50.188;8.524;2024-03-07T12:00:17;27.75;;;13.55;;
46006;SDS011;31738;50.188;8.524;2024-03-07T12:02:43;30.30;;;14.30;;
46006;SDS011;31738;50.188;8.524;2024-03-07T12:05:09;31.63;;;14.13;;
46006;SDS011;31738;50.188;8.524;2024-03-07T12:07:35;30.58;;;14.40;;
46006;SDS011;31738;50.188;8.524;2024-03-07T12:10:02;28.10;;;13.73;;
46006;SDS011;31738;50.188;8.524;2024-03-07T12:12:29;30.27;;;13.70;;
46006;SDS011;31738;50.188;8.524;2024-03-07T12:14:55;29.70;;;14.90;;
46006;SDS011;31738;50.188;8.524;2024-03-07T12:17:23;25.50;;;13.00;;
46006;SDS011;31738;50.188;8.524;2024-03-07T12:19:49;28.25;;;13.70;;
46006;SDS011;31738;50.188;8.524;2024-03-07T12:22:20;29.88;;;13.90;;
46006;SDS011;31738;50.188;8.524;2024-03-07T12:24:59;27.33;;;13.25;;
46006;SDS011;31738;50.188;8.524;2024-03-07T12:27:27;28.50;;;13.27;;
46006;SDS011;31738;50.188;8.524;2024-03-07T12:29:53;28.25;;;13.80;;
46006;SDS011;31738;50.188;8.524;2024-03-07T12:32:19;29.70;;;13.82;;
46006;SDS011;31738;50.188;8.524;2024-03-07T12:34:46;29.73;;;13.30;;
46006;SDS011;31738;50.188;8.524;2024-03-07T12:37:12;30.10;;;13.77;;
46006;SDS011;31738;50.188;8.524;2024-03-07T12:39:41;30.25;;;13.82;;
46006;SDS011;31738;50.188;8.524;2024-03-07T12:42:17;30.10;;;13.82;;
46006;SDS011;31738;50.188;8.524;2024-03-07T12:44:47;28.70;;;13.40;;
46006;SDS011;31738;50.188;8.524;2024-03-07T12:47:16;31.20;;;14.95;;
46006;SDS011;31738;50.188;8.524;2024-03-07T12:49:45;29.27;;;13.52;;
46006;SDS011;31738;50.188;8.524;2024-03-07T12:52:11;29.77;;;14.30;;
46006;SDS011;31738;50.188;8.524;2024-03-07T12:54:43;26.67;;;13.68;;
46006;SDS011;31738;50.188;8.524;2024-03-07T12:57:09;23.58;;;11.77;;
46006;SDS011;31738;50.188;8.524;2024-03-07T12:59:38;29.45;;;13.40;;
46006;SDS011;31738;50.188;8.524;2024-03-07T13:02:10;25.65;;;12.52;;
46006;SDS011;31738;50.188;8.524;2024-03-07T13:04:36;25.15;;;12.65;;
46006;SDS011;31738;50.188;8.524;2024-03-07T13:07:05;21.48;;;10.77;;
46006;SDS011;31738;50.188;8.524;2024-03-07T13:09:34;21.38;;;11.10;;
46006;SDS011;31738;50.188;8.524;2024-03-07T13:12:00;24.60;;;10.98;;
46006;SDS011;31738;50.188;8.524;2024-03-07T13:14:30;24.63;;;11.85;;
46006;SDS011;31738;50.188;8.524;2024-03-07T13:17:01;23.73;;;11.55;;
46006;SDS011;31738;50.188;8.524;2024-03-07T13:19:30;24.45;;;11.32;;
46006;SDS011;31738;50.188;8.524;2024-03-07T13:21:56;23.88;;;10.75;;
46006;SDS011;31738;50.188;8.524;2024-03-07T13:24:25;25.33;;;11.45;;
46006;SDS011;31738;50.188;8.524;2024-03-07T13:26:52;21.55;;;10.38;;
46006;SDS011;31738;50.188;8.524;2024-03-07T13:29:18;22.65;;;10.00;;
46006;SDS011;31738;50.188;8.524;2024-03-07T13:31:50;21.67;;;11.20;;
46006;SDS011;31738;50.188;8.524;2024-03-07T13:34:17;24.05;;;11.20;;
46006;SDS011;31738;50.188;8.524;2024-03-07T13:36:43;22.75;;;11.07;;
46006;SDS011;31738;50.188;8.524;2024-03-07T13:39:10;21.05;;;10.27;;
46006;SDS011;31738;50.188;8.524;2024-03-07T13:41:37;21.83;;;10.35;;
46006;SDS011;31738;50.188;8.524;2024-03-07T13:44:03;22.02;;;10.50;;
46006;SDS011;31738;50.188;8.524;2024-03-07T13:46:34;22.98;;;11.05;;
46006;SDS011;31738;50.188;8.524;2024-03-07T13:49:03;25.65;;;11.32;;
46006;SDS011;31738;50.188;8.524;2024-03-07T13:51:42;22.55;;;10.82;;
46006;SDS011;31738;50.188;8.524;2024-03-07T13:54:21;22.55;;;11.35;;
46006;SDS011;31738;50.188;8.524;2024-03-07T13:57:21;25.88;;;12.30;;
46006;SDS011;31738;50.188;8.524;2024-03-07T14:00:06;27.95;;;12.43;;
46006;SDS011;31738;50.188;8.524;2024-03-07T14:02:59;25.67;;;11.75;;
46006;SDS011;31738;50.188;8.524;2024-03-07T14:08:33;27.42;;;13.05;;
46006;SDS011;31738;50.188;8.524;2024-03-07T14:23:10;21.70;;;10.68;;
46006;SDS011;31738;50.188;8.524;2024-03-07T14:31:11;22.00;;;9.88;;
46006;SDS011;31738;50.188;8.524;2024-03-07T14:36:53;21.77;;;10.43;;
46006;SDS011;31738;50.188;8.524;2024-03-07T14:39:24;24.10;;;10.20;;
46006;SDS011;31738;50.188;8.524;2024-03-07T14:41:55;21.73;;;10.48;;
46006;SDS011;31738;50.188;8.524;2024-03-07T14:44:23;22.08;;;10.32;;
46006;SDS011;31738;50.188;8.524;2024-03-07T14:46:51;19.55;;;10.15;;
46006;SDS011;31738;50.188;8.524;2024-03-07T14:49:19;22.13;;;10.50;;
46006;SDS011;31738;50.188;8.524;2024-03-07T14:51:45;22.80;;;10.30;;
46006;SDS011;31738;50.188;8.524;2024-03-07T14:54:12;24.63;;;10.48;;
46006;SDS011;31738;50.188;8.524;2024-03-07T14:56:37;22.20;;;10.57;;
46006;SDS011;31738;50.188;8.524;2024-03-07T14:59:03;21.35;;;9.88;;
46006;SDS011;31738;50.188;8.524;2024-03-07T15:01:31;19.50;;;9.25;;
46006;SDS011;31738;50.188;8.524;2024-03-07T15:03:59;19.20;;;9.80;;
46006;SDS011;31738;50.188;8.524;2024-03-07T15:06:25;16.70;;;8.68;;
46006;SDS011;31738;50.188;8.524;2024-03-07T15:08:51;18.42;;;8.82;;
46006;SDS011;31738;50.188;8.524;2024-03-07T15:14:09;18.30;;;7.82;;
46006;SDS011;31738;50.188;8.524;2024-03-07T15:16:35;19.35;;;9.02;;
46006;SDS011;31738;50.188;8.524;2024-03-07T15:19:05;17.17;;;8.35;;